Time;durP1;ratioP1;P1;durP2;ratioP2;P2;SDS_P1;SDS_P2;PMS_P1;PMS_P2;Temp;Humidity;BMP_temperature;BMP_pressure;BME280_temperature;BME280_humidity;BME280_pressure;Samples;Min_cycle;Max_cycle;Signal;HPM_P1;HPM_P2
2022/03/29 00:02:17;;;;;;;37.03;19.95;;;11.80;70.60;;;;;;6217812;23;20072;-92
2022/03/29 00:04:44;;;;;;;30.30;18.98;;;11.80;70.70;;;;;;6217104;23;20427;-91
2022/03/29 00:07:11;;;;;;;33.65;19.55;;;11.80;70.70;;;;;;6217024;23;20418;-90
2022/03/29 00:09:38;;;;;;;32.20;19.92;;;11.80;70.80;;;;;;6217640;23;20072;-92
2022/03/29 00:12:05;;;;;;;27.92;18.92;;;11.70;70.80;;;;;;6217544;23;20016;-91
2022/03/29 00:14:32;;;;;;;28.45;18.63;;;11.70;70.90;;;;;;6216576;23;20020;-92
2022/03/29 00:16:59;;;;;;;34.03;19.33;;;11.70;70.90;;;;;;6217484;23;20017;-91
2022/03/29 00:19:26;;;;;;;32.85;18.85;;;11.70;71.00;;;;;;6191072;23;20020;-93
2022/03/29 00:21:53;;;;;;;30.63;19.25;;;11.70;71.00;;;;;;6217281;23;20023;-91
2022/03/29 00:24:20;;;;;;;27.88;18.98;;;11.70;71.10;;;;;;6217222;23;20056;-92
2022/03/29 00:26:47;;;;;;;31.85;19.00;;;11.60;71.10;;;;;;6216884;23;20459;-92
2022/03/29 00:29:14;;;;;;;31.88;20.05;;;11.60;71.20;;;;;;6217404;23;20032;-91
2022/03/29 00:31:41;;;;;;;28.73;19.27;;;11.60;71.20;;;;;;6216562;23;20474;-91
2022/03/29 00:34:08;;;;;;;29.60;20.10;;;11.60;71.30;;;;;;6216846;23;20024;-90
2022/03/29 00:36:36;;;;;;;35.97;22.65;;;11.60;71.30;;;;;;6217004;23;20024;-91
2022/03/29 00:39:04;;;;;;;31.15;20.17;;;11.60;71.40;;;;;;6217190;23;20020;-91
2022/03/29 00:41:31;;;;;;;33.38;21.05;;;11.50;71.50;;;;;;6217171;23;20075;-91
2022/03/29 00:43:59;;;;;;;36.53;22.95;;;11.50;71.60;;;;;;6191013;23;20075;-92
2022/03/29 00:46:26;;;;;;;42.63;25.38;;;11.60;71.60;;;;;;6216864;23;20478;-91
2022/03/29 00:48:54;;;;;;;35.30;23.27;;;11.60;71.70;;;;;;6216912;23;20025;-91
2022/03/29 00:51:21;;;;;;;32.25;22.85;;;11.50;71.80;;;;;;6216732;23;20028;-90
2022/03/29 00:53:51;;;;;;;36.10;23.85;;;11.50;71.80;;;;;;6190831;23;20025;-92
2022/03/29 00:56:22;;;;;;;35.95;23.60;;;11.50;71.90;;;;;;6216374;23;20496;-92
2022/03/29 00:58:49;;;;;;;35.75;23.42;;;11.50;71.90;;;;;;6217131;23;20016;-91
2022/03/29 01:01:16;;;;;;;36.97;23.02;;;11.50;71.90;;;;;;6217094;23;20027;-92
2022/03/29 01:03:45;;;;;;;44.58;25.55;;;11.50;72.00;;;;;;6216288;23;20019;-91
2022/03/29 01:06:13;;;;;;;41.35;25.95;;;11.50;72.00;;;;;;6216496;23;20044;-91
2022/03/29 01:08:40;;;;;;;39.25;24.42;;;11.50;72.00;;;;;;6216666;23;20075;-92
2022/03/29 01:11:12;;;;;;;39.60;25.42;;;11.50;72.10;;;;;;6216775;23;20355;-91
2022/03/29 01:13:41;;;;;;;40.17;25.88;;;11.50;72.10;;;;;;6216655;23;20017;-91
2022/03/29 01:18:55;;;;;;;40.78;26.65;;;11.60;72.10;;;;;;6216418;23;20071;-91
2022/03/29 01:21:25;;;;;;;45.67;28.75;;;11.50;72.10;;;;;;6216400;23;20024;-91
2022/03/29 01:23:52;;;;;;;43.05;26.48;;;11.50;72.20;;;;;;6190385;23;20024;-91
2022/03/29 01:26:20;;;;;;;44.47;26.58;;;11.60;72.20;;;;;;6216034;23;20024;-92
2022/03/29 01:28:47;;;;;;;41.65;27.30;;;11.50;72.20;;;;;;6189630;23;20075;-91
2022/03/29 01:31:15;;;;;;;41.40;27.02;;;11.50;72.20;;;;;;6190451;23;20028;-92
2022/03/29 01:33:43;;;;;;;42.60;26.48;;;11.50;72.30;;;;;;6215622;23;20017;-91
2022/03/29 01:36:10;;;;;;;41.13;25.77;;;11.60;72.30;;;;;;6189959;23;20531;-91
2022/03/29 01:38:38;;;;;;;44.25;28.73;;;11.60;72.30;;;;;;6189542;23;20020;-92
2022/03/29 01:41:05;;;;;;;47.35;28.88;;;11.50;72.30;;;;;;6190534;23;20024;-90
2022/03/29 01:43:33;;;;;;;46.45;29.80;;;11.50;72.30;;;;;;6215978;23;20548;-92
2022/03/29 01:46:00;;;;;;;45.38;29.15;;;11.50;72.40;;;;;;6215867;23;20078;-90
2022/03/29 01:48:28;;;;;;;48.05;30.38;;;11.50;72.40;;;;;;6215645;23;20027;-91
2022/03/29 01:50:55;;;;;;;46.15;29.95;;;11.50;72.40;;;;;;6189591;23;20028;-91
2022/03/29 01:53:27;;;;;;;44.88;28.23;;;11.50;72.50;;;;;;6189551;23;20067;-90
2022/03/29 01:55:56;;;;;;;46.40;31.10;;;11.50;72.60;;;;;;6189683;23;20020;-92
2022/03/29 01:58:24;;;;;;;46.97;30.15;;;11.50;72.60;;;;;;6190284;23;20455;-91
2022/03/29 02:00:51;;;;;;;42.20;29.10;;;11.50;72.60;;;;;;6189777;23;20021;-92
2022/03/29 02:03:19;;;;;;;47.38;30.08;;;11.40;72.60;;;;;;6189279;23;20363;-92
2022/03/29 02:05:46;;;;;;;46.08;29.38;;;11.50;72.70;;;;;;6189682;23;20715;-90
2022/03/29 02:08:13;;;;;;;48.53;30.30;;;11.40;72.70;;;;;;6215919;23;20032;-92
2022/03/29 02:10:40;;;;;;;47.85;31.50;;;11.40;72.80;;;;;;6215883;23;20078;-91
2022/03/29 02:13:10;;;;;;;45.90;30.02;;;11.40;72.80;;;;;;6216051;23;20056;-90
2022/03/29 02:15:38;;;;;;;45.65;30.63;;;11.40;72.90;;;;;;6216156;23;20024;-90
2022/03/29 02:18:06;;;;;;;46.38;31.52;;;11.40;72.90;;;;;;6189801;23;20020;-92
2022/03/29 02:20:33;;;;;;;44.17;31.58;;;11.40;73.00;;;;;;6215675;23;20479;-91
2022/03/29 02:23:06;;;;;;;44.53;31.75;;;11.40;73.00;;;;;;6216097;23;20016;-92
2022/03/29 02:25:34;;;;;;;50.67;31.57;;;11.40;73.00;;;;;;6216065;23;20024;-92
2022/03/29 02:28:02;;;;;;;48.38;32.40;;;11.40;73.10;;;;;;6215613;23;20240;-92
2022/03/29 02:30:29;;;;;;;57.90;32.95;;;11.30;73.10;;;;;;6215622;23;20087;-91
2022/03/29 02:32:56;;;;;;;47.17;30.73;;;11.40;73.10;;;;;;6215398;23;20043;-92
2022/03/29 02:35:23;;;;;;;48.17;32.15;;;11.30;73.20;;;;;;6215869;23;20075;-91
2022/03/29 02:37:50;;;;;;;47.85;31.27;;;11.30;73.20;;;;;;6215928;23;20394;-92
2022/03/29 02:40:17;;;;;;;48.58;32.95;;;11.30;73.20;;;;;;6189771;23;20017;-91
2022/03/29 02:42:51;;;;;;;47.10;31.05;;;11.30;73.20;;;;;;6215717;23;20028;-92
2022/03/29 02:45:24;;;;;;;49.15;32.05;;;11.30;73.20;;;;;;6189328;23;20024;-92
2022/03/29 02:47:53;;;;;;;50.72;32.80;;;11.30;73.30;;;;;;6216012;23;20351;-91
2022/03/29 02:50:22;;;;;;;50.70;34.05;;;11.20;73.30;;;;;;6215920;23;20029;-92
2022/03/29 02:52:52;;;;;;;54.38;34.72;;;11.20;73.40;;;;;;6215701;23;20028;-90
2022/03/29 02:55:21;;;;;;;50.72;34.17;;;11.20;73.40;;;;;;6215177;23;20027;-91
2022/03/29 02:57:48;;;;;;;51.75;32.65;;;11.20;73.40;;;;;;6215908;23;20075;-91
2022/03/29 03:00:17;;;;;;;50.72;34.17;;;11.20;73.50;;;;;;6188814;23;20471;-91
2022/03/29 03:02:45;;;;;;;47.85;33.17;;;11.20;73.50;;;;;;6215349;23;20024;-91
2022/03/29 03:05:13;;;;;;;48.05;31.60;;;11.20;73.50;;;;;;6215650;23;20406;-91
2022/03/29 03:07:42;;;;;;;51.83;32.75;;;11.20;73.60;;;;;;6215190;23;20028;-93
2022/03/29 03:10:10;;;;;;;58.72;35.72;;;11.20;73.60;;;;;;6189520;23;20025;-91
2022/03/29 03:12:44;;;;;;;53.40;35.15;;;11.10;73.60;;;;;;6215555;23;20024;-92
2022/03/29 03:15:13;;;;;;;54.00;37.25;;;11.10;73.70;;;;;;6214822;23;20028;-91
2022/03/29 03:17:41;;;;;;;52.95;36.22;;;11.10;73.70;;;;;;6215395;23;20021;-91
2022/03/29 03:20:08;;;;;;;50.38;32.95;;;11.10;73.70;;;;;;6189245;23;20024;-91
2022/03/29 03:22:39;;;;;;;55.33;35.30;;;11.10;73.80;;;;;;6215673;23;20024;-91
2022/03/29 03:25:07;;;;;;;58.85;39.55;;;11.10;73.80;;;;;;6215970;23;20024;-91
2022/03/29 03:27:34;;;;;;;52.70;35.97;;;11.10;73.80;;;;;;6215197;23;20013;-92
2022/03/29 03:30:03;;;;;;;59.17;37.80;;;11.10;73.80;;;;;;6215347;23;20079;-91
2022/03/29 03:32:30;;;;;;;63.30;38.55;;;11.10;73.80;;;;;;6189235;23;20054;-91
2022/03/29 03:34:58;;;;;;;62.13;38.95;;;11.10;73.80;;;;;;6215095;23;20028;-91
2022/03/29 03:37:26;;;;;;;61.85;39.97;;;11.10;73.80;;;;;;6215497;23;20032;-91
2022/03/29 03:39:53;;;;;;;73.13;44.78;;;11.10;73.80;;;;;;6215705;23;20023;-92
2022/03/29 03:42:21;;;;;;;68.28;39.50;;;11.10;73.90;;;;;;6215329;23;20024;-91
2022/03/29 03:44:48;;;;;;;70.43;45.67;;;11.10;73.90;;;;;;6214753;23;20024;-91
2022/03/29 03:47:15;;;;;;;59.13;41.58;;;11.10;73.90;;;;;;6215522;23;20024;-90
2022/03/29 03:49:42;;;;;;;57.55;40.92;;;11.10;73.90;;;;;;6214958;23;20071;-92
2022/03/29 03:52:09;;;;;;;60.40;42.65;;;11.10;73.90;;;;;;6188855;23;20474;-92
2022/03/29 03:54:36;;;;;;;60.80;41.53;;;11.00;73.90;;;;;;6189107;23;20028;-90
2022/03/29 03:57:04;;;;;;;59.88;41.85;;;11.00;74.00;;;;;;6214946;23;20024;-92
2022/03/29 03:59:32;;;;;;;73.25;43.17;;;11.00;74.00;;;;;;6188228;23;20048;-91
2022/03/29 04:02:00;;;;;;;60.72;41.78;;;11.00;74.00;;;;;;6215051;23;20028;-91
2022/03/29 04:04:27;;;;;;;63.03;41.28;;;11.00;74.00;;;;;;6189180;23;20023;-92
2022/03/29 04:06:54;;;;;;;61.88;41.65;;;11.00;74.00;;;;;;6188883;23;20030;-90
2022/03/29 04:09:21;;;;;;;54.05;40.35;;;11.00;74.00;;;;;;6214994;23;20406;-92
2022/03/29 04:11:48;;;;;;;59.25;40.17;;;10.90;74.00;;;;;;6215247;23;20025;-91
2022/03/29 04:14:15;;;;;;;64.07;41.65;;;11.00;74.10;;;;;;6188311;23;20032;-90
2022/03/29 04:16:43;;;;;;;58.38;39.33;;;10.90;74.10;;;;;;6188368;23;20031;-90
2022/03/29 04:19:10;;;;;;;53.05;39.08;;;10.90;74.10;;;;;;6188980;23;20036;-91
2022/03/29 04:21:37;;;;;;;59.00;40.78;;;10.90;74.10;;;;;;6188434;23;20020;-91
2022/03/29 04:24:05;;;;;;;60.55;39.95;;;10.90;74.10;;;;;;6188889;23;20024;-91
2022/03/29 04:26:32;;;;;;;59.65;41.10;;;10.90;74.10;;;;;;6214701;23;20023;-92
2022/03/29 04:28:59;;;;;;;60.17;39.53;;;10.90;74.10;;;;;;6188038;23;20017;-90
2022/03/29 04:31:26;;;;;;;61.38;39.70;;;10.90;74.10;;;;;;6189963;23;20023;-92
2022/03/29 04:33:53;;;;;;;57.22;38.63;;;10.90;74.20;;;;;;6190146;23;20036;-92
2022/03/29 04:36:20;;;;;;;59.42;39.83;;;10.90;74.20;;;;;;6190261;23;20020;-91
2022/03/29 04:38:47;;;;;;;62.55;38.53;;;10.90;74.20;;;;;;6190360;23;20075;-91
2022/03/29 04:41:14;;;;;;;60.42;38.67;;;10.90;74.20;;;;;;6190633;23;20025;-91
2022/03/29 04:43:40;;;;;;;57.90;39.13;;;10.90;74.20;;;;;;6190370;23;20059;-91
2022/03/29 04:46:08;;;;;;;56.35;39.00;;;10.80;74.20;;;;;;6190307;23;20101;-91
2022/03/29 04:48:35;;;;;;;66.18;40.20;;;10.80;74.30;;;;;;6190645;23;20021;-91
2022/03/29 04:51:02;;;;;;;53.17;38.00;;;10.80;74.30;;;;;;6190337;23;20463;-91
2022/03/29 04:53:30;;;;;;;54.03;38.75;;;10.70;74.30;;;;;;6190420;23;20021;-90
2022/03/29 04:55:57;;;;;;;56.17;37.67;;;10.70;74.30;;;;;;6189901;23;20013;-91
2022/03/29 04:58:25;;;;;;;59.70;39.15;;;10.70;74.40;;;;;;6190786;23;20025;-91
2022/03/29 05:00:52;;;;;;;62.17;40.08;;;10.70;74.40;;;;;;6216745;23;20028;-92
2022/03/29 05:03:19;;;;;;;58.88;39.17;;;10.70;74.40;;;;;;6216192;23;20497;-91
2022/03/29 05:05:46;;;;;;;60.90;38.53;;;10.70;74.40;;;;;;6216658;23;20016;-91
2022/03/29 05:08:13;;;;;;;56.28;39.45;;;10.60;74.40;;;;;;6216338;23;20033;-91
2022/03/29 05:10:40;;;;;;;62.42;40.55;;;10.70;74.50;;;;;;6215917;23;20489;-91
2022/03/29 05:13:09;;;;;;;65.22;39.97;;;10.60;74.50;;;;;;6216394;23;20029;-92
2022/03/29 05:15:36;;;;;;;62.15;40.65;;;10.60;74.50;;;;;;6216598;23;20017;-90
2022/03/29 05:18:04;;;;;;;61.65;41.13;;;10.60;74.50;;;;;;6190552;23;20055;-91
2022/03/29 05:20:31;;;;;;;58.20;41.03;;;10.60;74.50;;;;;;6190047;23;20021;-92
2022/03/29 05:23:00;;;;;;;55.15;39.30;;;10.60;74.50;;;;;;6216320;23;20051;-92
2022/03/29 05:25:27;;;;;;;61.00;40.88;;;10.60;74.50;;;;;;6215881;23;20384;-90
2022/03/29 05:27:57;;;;;;;64.28;41.65;;;10.60;74.60;;;;;;6215903;23;20067;-90
2022/03/29 05:30:25;;;;;;;57.05;38.97;;;10.60;74.60;;;;;;6216323;23;20021;-91
2022/03/29 05:32:57;;;;;;;60.35;41.03;;;10.60;74.60;;;;;;6215773;23;20021;-91
2022/03/29 05:35:29;;;;;;;58.83;40.15;;;10.60;74.60;;;;;;6190184;23;20052;-91
2022/03/29 05:37:57;;;;;;;63.58;42.47;;;10.60;74.60;;;;;;6190077;23;20062;-90
2022/03/29 05:40:25;;;;;;;65.22;42.72;;;10.60;74.60;;;;;;6189604;23;20021;-90
2022/03/29 05:42:53;;;;;;;64.13;41.35;;;10.60;74.60;;;;;;6189673;23;20463;-90
2022/03/29 05:45:20;;;;;;;58.33;39.47;;;10.60;74.70;;;;;;6189467;23;20021;-90
2022/03/29 05:50:33;;;;;;;65.15;40.35;;;10.60;74.70;;;;;;6215795;23;20016;-91
2022/03/29 05:53:02;;;;;;;58.28;39.90;;;10.50;74.70;;;;;;6189734;23;20016;-90
2022/03/29 05:55:29;;;;;;;63.03;40.97;;;10.50;74.70;;;;;;6189519;23;20025;-91
2022/03/29 05:57:56;;;;;;;58.25;40.80;;;10.50;74.70;;;;;;6189282;23;20025;-92
2022/03/29 06:00:25;;;;;;;54.38;39.30;;;10.50;74.70;;;;;;6189316;23;20016;-90
2022/03/29 06:02:55;;;;;;;60.72;41.05;;;10.50;74.70;;;;;;6189189;23;20017;-90
2022/03/29 06:05:22;;;;;;;58.83;39.63;;;10.50;74.70;;;;;;6215658;23;20020;-90
2022/03/29 06:07:50;;;;;;;61.72;41.17;;;10.50;74.80;;;;;;6189289;23;20017;-91
2022/03/29 06:10:17;;;;;;;59.63;40.25;;;10.50;74.80;;;;;;6188762;23;20021;-90
2022/03/29 06:12:45;;;;;;;59.85;39.65;;;10.50;74.80;;;;;;6215828;23;20024;-91
2022/03/29 06:15:13;;;;;;;62.85;40.33;;;10.50;74.80;;;;;;6189212;23;20020;-91
2022/03/29 06:17:40;;;;;;;56.88;39.40;;;10.50;74.80;;;;;;6188824;23;20020;-91
2022/03/29 06:20:09;;;;;;;63.42;41.28;;;10.50;74.80;;;;;;6189576;23;20024;-90
2022/03/29 06:22:43;;;;;;;57.97;39.92;;;10.40;74.80;;;;;;6188885;23;20029;-90
2022/03/29 06:25:12;;;;;;;62.28;40.58;;;10.40;74.90;;;;;;6188964;23;20024;-91
2022/03/29 06:27:40;;;;;;;59.38;40.50;;;10.40;74.90;;;;;;6189427;23;20020;-90
2022/03/29 06:30:08;;;;;;;65.32;41.00;;;10.50;74.90;;;;;;6215362;23;20462;-89
2022/03/29 06:32:45;;;;;;;60.22;40.08;;;10.40;75.00;;;;;;6188903;23;20048;-89
2022/03/29 06:35:12;;;;;;;62.92;39.17;;;10.50;75.00;;;;;;6215292;23;20021;-90
2022/03/29 06:37:40;;;;;;;58.25;40.00;;;10.40;75.00;;;;;;6214330;23;20333;-89
2022/03/29 06:40:08;;;;;;;55.70;38.92;;;10.40;75.10;;;;;;6215373;23;20017;-91
2022/03/29 06:42:35;;;;;;;62.50;40.33;;;10.50;75.10;;;;;;6214847;23;20116;-90
2022/03/29 06:45:03;;;;;;;59.58;40.28;;;10.50;75.10;;;;;;6215254;23;20083;-90
2022/03/29 06:47:31;;;;;;;58.17;40.45;;;10.50;75.20;;;;;;6213468;23;20363;-89
2022/03/29 06:49:57;;;;;;;58.10;38.78;;;10.40;75.20;;;;;;6214434;23;20481;-90
2022/03/29 06:52:26;;;;;;;52.25;39.17;;;10.40;75.20;;;;;;6213753;23;20028;-90
2022/03/29 06:54:53;;;;;;;65.15;41.95;;;10.50;75.20;;;;;;6214714;23;20471;-90
2022/03/29 06:57:20;;;;;;;63.28;41.90;;;10.50;75.30;;;;;;6188683;23;20024;-90
2022/03/29 06:59:47;;;;;;;60.70;41.30;;;10.50;75.30;;;;;;6215010;23;20074;-91
2022/03/29 07:02:14;;;;;;;68.70;41.78;;;10.50;75.30;;;;;;6188691;23;20025;-90
2022/03/29 07:04:42;;;;;;;65.15;43.08;;;10.50;75.40;;;;;;6215120;23;20023;-90
2022/03/29 07:07:09;;;;;;;62.60;41.08;;;10.50;75.40;;;;;;6214729;23;20062;-89
2022/03/29 07:12:22;;;;;;;61.30;41.47;;;10.50;75.50;;;;;;6214630;23;20075;-91
2022/03/29 07:14:50;;;;;;;59.72;40.08;;;10.50;75.50;;;;;;6214771;23;20024;-90
2022/03/29 07:17:17;;;;;;;63.40;41.53;;;10.50;75.50;;;;;;6188486;23;20363;-90
2022/03/29 07:19:46;;;;;;;69.28;42.25;;;10.50;75.60;;;;;;6215144;23;20103;-91
2022/03/29 07:22:13;;;;;;;60.42;39.67;;;10.50;75.60;;;;;;6188290;23;20344;-91
2022/03/29 07:24:40;;;;;;;58.38;39.97;;;10.50;75.60;;;;;;6188696;23;20020;-89
2022/03/29 07:27:08;;;;;;;64.18;40.33;;;10.60;75.60;;;;;;6189338;23;20075;-92
2022/03/29 07:29:36;;;;;;;73.30;44.88;;;10.60;75.60;;;;;;6215577;23;20025;-91
2022/03/29 07:32:04;;;;;;;64.18;41.90;;;10.60;75.60;;;;;;6214613;23;20020;-91
2022/03/29 07:34:35;;;;;;;59.20;41.47;;;10.60;75.70;;;;;;6188089;23;20341;-90
2022/03/29 07:37:03;;;;;;;68.68;44.58;;;10.60;75.70;;;;;;6214560;23;20075;-90
2022/03/29 07:39:30;;;;;;;66.97;43.47;;;10.60;75.70;;;;;;6189016;23;20021;-91
2022/03/29 07:41:57;;;;;;;66.55;41.22;;;10.70;75.70;;;;;;6215206;23;20024;-91
2022/03/29 07:44:24;;;;;;;63.15;42.20;;;10.70;75.70;;;;;;6188569;23;20024;-92
2022/03/29 07:46:51;;;;;;;69.28;43.03;;;10.70;75.70;;;;;;6215196;23;20031;-91
2022/03/29 07:49:19;;;;;;;72.10;43.75;;;10.70;75.70;;;;;;6215225;23;20047;-92
2022/03/29 07:52:06;;;;;;;71.70;46.00;;;10.70;75.70;;;;;;6215141;23;20025;-93
2022/03/29 07:54:33;;;;;;;71.35;47.13;;;10.80;75.70;;;;;;6189287;23;20021;-90
2022/03/29 07:57:00;;;;;;;76.57;44.42;;;10.80;75.80;;;;;;6215099;23;20075;-91
2022/03/29 07:59:27;;;;;;;77.03;45.25;;;10.80;75.80;;;;;;6215347;23;20020;-91
2022/03/29 08:01:54;;;;;;;74.05;44.75;;;10.80;75.90;;;;;;6215508;23;20020;-91
2022/03/29 08:04:21;;;;;;;66.72;44.80;;;10.80;75.90;;;;;;6215001;23;20017;-91
2022/03/29 08:06:48;;;;;;;72.88;47.20;;;10.90;75.90;;;;;;6216692;23;20354;-92
2022/03/29 08:09:15;;;;;;;78.38;46.15;;;10.90;75.80;;;;;;6191230;23;20032;-92
2022/03/29 08:11:42;;;;;;;80.57;46.70;;;10.90;75.80;;;;;;6217115;23;20540;-91
2022/03/29 08:14:09;;;;;;;78.20;46.47;;;10.90;75.80;;;;;;6216982;23;20028;-91
2022/03/29 08:16:37;;;;;;;83.60;48.00;;;10.90;75.80;;;;;;6216590;23;20509;-92
2022/03/29 08:19:04;;;;;;;82.82;47.47;;;10.90;75.80;;;;;;6216947;23;20103;-92
2022/03/29 08:24:18;;;;;;;71.70;45.15;;;10.90;75.70;;;;;;6217221;23;20017;-92
2022/03/29 08:26:46;;;;;;;95.07;50.67;;;11.00;75.70;;;;;;6217242;23;20020;-91
2022/03/29 08:29:15;;;;;;;93.15;49.33;;;11.00;75.70;;;;;;6217485;23;20021;-91
2022/03/29 08:31:44;;;;;;;73.40;45.22;;;11.10;75.70;;;;;;6217167;23;20024;-91
2022/03/29 08:34:12;;;;;;;73.65;44.65;;;11.10;75.70;;;;;;6216516;23;20024;-92
2022/03/29 08:36:39;;;;;;;77.43;45.92;;;11.10;75.60;;;;;;6217078;23;20021;-91
2022/03/29 08:39:07;;;;;;;77.45;44.90;;;11.10;75.60;;;;;;6217076;23;20032;-91
2022/03/29 08:41:43;;;;;;;82.97;45.30;;;11.10;75.60;;;;;;6217334;23;20020;-93
2022/03/29 08:44:10;;;;;;;73.90;44.03;;;11.20;75.70;;;;;;6190597;23;20020;-93
2022/03/29 08:46:39;;;;;;;68.30;44.28;;;11.20;75.70;;;;;;6216869;23;20017;-93
2022/03/29 08:49:06;;;;;;;71.82;44.42;;;11.30;75.70;;;;;;6190131;23;20017;-92
2022/03/29 08:51:36;;;;;;;70.70;43.35;;;11.40;75.60;;;;;;6190589;23;20324;-91
2022/03/29 08:54:04;;;;;;;71.57;43.80;;;11.40;75.50;;;;;;6190429;23;20399;-92
2022/03/29 08:56:31;;;;;;;69.90;42.20;;;11.40;75.50;;;;;;6190174;23;20017;-92
2022/03/29 08:58:58;;;;;;;67.05;43.53;;;11.40;75.40;;;;;;6190317;23;20016;-93
2022/03/29 09:01:25;;;;;;;68.65;43.35;;;11.40;75.40;;;;;;6190448;23;20079;-92
2022/03/29 09:04:13;;;;;;;69.63;43.67;;;11.50;75.30;;;;;;6190446;23;20071;-92
2022/03/29 09:06:56;;;;;;;67.13;42.28;;;11.50;75.30;;;;;;6190421;23;20027;-91
2022/03/29 09:09:29;;;;;;;67.85;43.17;;;11.60;75.20;;;;;;6190346;23;20417;-93
2022/03/29 09:11:59;;;;;;;61.67;41.53;;;11.60;75.10;;;;;;6190385;23;20020;-93
2022/03/29 09:14:29;;;;;;;63.80;41.20;;;11.70;75.00;;;;;;6190042;23;20016;-93
2022/03/29 09:16:56;;;;;;;78.38;47.38;;;11.70;74.90;;;;;;6189599;23;20454;-92
2022/03/29 09:19:25;;;;;;;62.67;40.70;;;11.80;74.90;;;;;;6190461;23;20021;-92
2022/03/29 09:21:54;;;;;;;62.90;40.90;;;11.80;74.80;;;;;;6216753;23;20023;-92
2022/03/29 09:24:21;;;;;;;62.58;39.97;;;11.80;74.70;;;;;;6216372;23;20025;-92
2022/03/29 09:26:54;;;;;;;57.90;38.13;;;11.90;74.60;;;;;;6216464;23;20501;-92
2022/03/29 09:29:26;;;;;;;69.28;40.88;;;11.90;74.50;;;;;;6216407;23;20051;-91
2022/03/29 09:32:17;;;;;;;59.30;38.60;;;11.90;74.40;;;;;;6214718;23;20053;-91
2022/03/29 09:35:02;;;;;;;59.40;39.13;;;12.00;74.20;;;;;;6215426;23;20055;-92
2022/03/29 09:37:35;;;;;;;59.25;39.72;;;12.00;74.10;;;;;;6215838;23;20524;-93
2022/03/29 09:40:03;;;;;;;60.28;39.78;;;12.10;74.00;;;;;;6216084;23;20017;-91
2022/03/29 09:42:30;;;;;;;63.63;38.95;;;12.10;73.90;;;;;;6189304;23;20025;-90
2022/03/29 09:44:57;;;;;;;55.53;37.33;;;12.20;73.80;;;;;;6216042;23;20017;-91
2022/03/29 09:47:27;;;;;;;55.70;36.30;;;12.20;73.70;;;;;;6215484;23;20332;-92
2022/03/29 09:49:57;;;;;;;60.80;37.42;;;12.20;73.60;;;;;;6189665;23;20347;-92
2022/03/29 09:52:37;;;;;;;56.10;35.70;;;12.30;73.60;;;;;;6215957;23;20099;-92
2022/03/29 09:55:22;;;;;;;54.92;36.92;;;12.30;73.50;;;;;;6189970;23;20402;-92
2022/03/29 09:57:54;;;;;;;53.53;35.67;;;12.40;73.40;;;;;;6214637;23;20087;-92
2022/03/29 10:00:24;;;;;;;52.97;35.75;;;12.40;73.30;;;;;;6215123;23;20028;-92
2022/03/29 10:02:51;;;;;;;56.83;36.45;;;12.40;73.20;;;;;;6215648;23;20017;-92
2022/03/29 10:05:19;;;;;;;50.67;35.42;;;12.40;73.20;;;;;;6215066;23;20020;-92
2022/03/29 10:10:48;;;;;;;62.28;37.30;;;12.50;73.00;;;;;;6215967;23;20108;-92
2022/03/29 10:13:17;;;;;;;59.83;38.35;;;12.50;72.90;;;;;;6215357;23;20422;-92
2022/03/29 10:15:45;;;;;;;59.30;36.72;;;12.50;72.90;;;;;;6188119;23;20344;-93
2022/03/29 10:18:14;;;;;;;54.55;36.83;;;12.50;72.80;;;;;;6215858;23;20052;-92
2022/03/29 10:20:41;;;;;;;57.75;38.60;;;12.60;72.70;;;;;;6215211;23;20563;-93
2022/03/29 10:23:10;;;;;;;58.58;37.30;;;12.60;72.70;;;;;;6214871;23;20025;-93
2022/03/29 10:25:38;;;;;;;56.60;35.15;;;12.60;72.60;;;;;;6215548;23;20020;-93
2022/03/29 10:28:05;;;;;;;55.85;35.58;;;12.70;72.50;;;;;;6215156;23;20029;-92
2022/03/29 10:30:35;;;;;;;57.40;37.25;;;12.60;72.50;;;;;;6215207;23;20017;-94
2022/03/29 10:33:19;;;;;;;60.28;36.70;;;12.70;72.50;;;;;;6189011;23;20557;-92
2022/03/29 10:36:08;;;;;;;50.55;35.33;;;12.70;72.50;;;;;;6189165;23;20086;-93
2022/03/29 10:38:47;;;;;;;75.30;40.20;;;12.70;72.50;;;;;;6189176;23;20051;-93
2022/03/29 10:41:26;;;;;;;53.88;34.42;;;12.80;72.50;;;;;;6189101;23;20020;-93
2022/03/29 10:43:54;;;;;;;68.47;38.72;;;12.80;72.50;;;;;;6188774;23;20475;-92
2022/03/29 10:46:26;;;;;;;53.72;34.80;;;12.80;72.60;;;;;;6189123;23;20384;-92
2022/03/29 10:49:22;;;;;;;67.50;41.03;;;12.80;72.60;;;;;;6189690;23;20016;-93
2022/03/29 10:51:54;;;;;;;59.45;37.95;;;12.80;72.80;;;;;;6188747;23;20020;-94
2022/03/29 10:54:29;;;;;;;52.78;34.30;;;12.80;72.80;;;;;;6215345;23;20017;-94
2022/03/29 10:57:03;;;;;;;52.83;35.03;;;12.90;72.90;;;;;;6215224;23;20060;-93
2022/03/29 10:59:32;;;;;;;54.22;35.20;;;12.90;73.00;;;;;;6214813;23;20025;-92
2022/03/29 11:02:25;;;;;;;52.53;35.28;;;12.90;72.90;;;;;;6215397;23;20336;-93
2022/03/29 11:05:07;;;;;;;52.42;34.50;;;12.90;72.90;;;;;;6209455;23;20034;-92
2022/03/29 11:07:48;;;;;;;58.13;35.72;;;12.90;73.00;;;;;;6214596;23;20048;-93
2022/03/29 11:10:37;;;;;;;73.60;44.67;;;12.90;73.00;;;;;;6215800;23;20084;-92
2022/03/29 11:13:23;;;;;;;53.97;35.63;;;13.00;73.10;;;;;;6214858;23;20024;-93
2022/03/29 11:15:50;;;;;;;54.25;34.83;;;13.00;73.20;;;;;;6214526;23;20020;-92
2022/03/29 11:18:37;;;;;;;55.78;37.08;;;13.00;73.20;;;;;;6214786;23;20471;-92
2022/03/29 11:21:05;;;;;;;56.70;36.28;;;13.10;73.00;;;;;;6214640;23;20020;-91
2022/03/29 11:23:41;;;;;;;59.63;37.95;;;13.10;72.90;;;;;;6188140;23;20062;-91
2022/03/29 11:26:13;;;;;;;57.50;36.58;;;13.10;72.70;;;;;;6214971;23;20395;-94
2022/03/29 11:28:52;;;;;;;56.22;35.78;;;13.20;72.60;;;;;;6214798;23;20029;-94
2022/03/29 11:31:21;;;;;;;52.35;35.85;;;13.20;72.50;;;;;;6215211;23;20017;-93
2022/03/29 11:33:49;;;;;;;50.47;35.45;;;13.20;72.30;;;;;;6215217;23;20031;-93
2022/03/29 11:36:20;;;;;;;57.20;35.00;;;13.20;72.20;;;;;;6188102;23;20063;-92
2022/03/29 11:38:47;;;;;;;57.78;34.17;;;13.30;72.00;;;;;;6188523;23;20024;-93
2022/03/29 11:41:30;;;;;;;51.95;34.35;;;13.30;71.90;;;;;;6191041;23;20012;-93
2022/03/29 11:44:04;;;;;;;55.08;35.45;;;13.40;71.70;;;;;;6190420;23;20024;-93
2022/03/29 11:46:51;;;;;;;51.85;35.45;;;13.40;71.60;;;;;;6191211;23;20079;-93
2022/03/29 11:49:20;;;;;;;54.17;35.08;;;13.40;71.40;;;;;;6190761;23;20048;-92
2022/03/29 11:52:06;;;;;;;56.30;33.20;;;13.40;71.30;;;;;;6215983;23;20020;-92
2022/03/29 11:54:51;;;;;;;52.53;33.55;;;13.40;71.20;;;;;;6190459;23;20021;-92
2022/03/29 11:57:23;;;;;;;44.92;31.58;;;13.50;71.00;;;;;;6190167;23;20020;-94
2022/03/29 11:59:51;;;;;;;51.17;32.15;;;13.50;70.90;;;;;;6189822;23;20078;-93
2022/03/29 12:02:25;;;;;;;46.67;32.17;;;13.50;70.70;;;;;;6191202;23;20029;-93
2022/03/29 12:04:54;;;;;;;45.47;31.83;;;13.50;70.60;;;;;;6190458;23;20084;-93
2022/03/29 12:07:42;;;;;;;49.53;33.67;;;13.60;70.50;;;;;;6191137;23;20072;-93
2022/03/29 12:10:11;;;;;;;49.03;31.85;;;13.60;70.30;;;;;;6191104;23;20023;-93
2022/03/29 12:12:38;;;;;;;49.95;32.63;;;13.60;70.30;;;;;;6191084;23;20043;-92
2022/03/29 12:15:07;;;;;;;49.30;31.98;;;13.60;70.10;;;;;;6190639;23;20072;-93
2022/03/29 12:17:39;;;;;;;46.05;31.02;;;13.70;70.00;;;;;;6217651;23;20079;-93
2022/03/29 12:20:06;;;;;;;53.15;32.15;;;13.70;70.00;;;;;;6217523;23;20079;-93
2022/03/29 12:22:34;;;;;;;49.53;30.67;;;13.70;69.80;;;;;;6190487;23;20051;-92
2022/03/29 12:25:01;;;;;;;48.80;31.20;;;13.70;69.80;;;;;;6217659;23;20079;-92
2022/03/29 12:27:28;;;;;;;45.25;30.02;;;13.80;69.70;;;;;;6217370;23;20021;-95
2022/03/29 12:29:58;;;;;;;47.13;30.17;;;13.80;69.60;;;;;;6217349;23;20055;-94
2022/03/29 12:32:26;;;;;;;45.90;30.95;;;13.80;69.50;;;;;;6191223;23;20702;-92
2022/03/29 12:34:56;;;;;;;47.25;30.65;;;13.80;69.50;;;;;;6217137;23;20029;-93
2022/03/29 12:37:23;;;;;;;44.30;31.35;;;13.90;69.40;;;;;;6190886;23;20053;-91
2022/03/29 12:39:55;;;;;;;46.80;30.60;;;13.90;69.30;;;;;;6217243;23;20095;-93
2022/03/29 12:42:22;;;;;;;43.15;29.10;;;13.90;69.20;;;;;;6217354;23;20023;-93
2022/03/29 12:44:55;;;;;;;45.55;30.45;;;13.90;69.20;;;;;;6216752;23;20028;-94
2022/03/29 12:47:24;;;;;;;43.08;29.33;;;13.90;69.10;;;;;;6190467;23;20025;-93
2022/03/29 12:49:52;;;;;;;47.88;30.25;;;13.90;69.10;;;;;;6217182;23;20379;-92
2022/03/29 12:52:20;;;;;;;43.20;29.40;;;13.90;69.00;;;;;;6216237;23;20395;-93
2022/03/29 12:54:51;;;;;;;40.75;28.92;;;13.90;68.90;;;;;;6216992;23;20078;-93